Decoded Metar for OMRK (RAS AL KHAIMAH in UNITED ARAB EMIRATES) (IATA:RKT) | Meteo·Mobile Aviation Weather
aviador You're here:

OMRK Decoded Metar

RAS AL KHAIMAH in UNITED ARAB EMIRATES
Report Time2018-08-19 14:00:00
UTC Time2018-08-19 14:06:52
Flight Rules vfr VFR
Wind340° at 08 kt
W.Decomp.*RWY 34: 8.0 kt HW 0.1 kt LCW
W.Rank340° ranks 1
Current wind is above 340° avg. (7.7)
Visibility8000 m
Phenomena:N/A
Clouds:N/A
Expected CloudBase > 6,000 ft AGL from Temp-Dew spread
CeilingNone
Temp38°C (ISA +23)
Dew Point23°C (42% RH)
Heat Index44.4°C
QNH0995 hPa
Density Alt3,694 ft
Elevation102 ft
Report Wrong Elevation
Raw Report
METAR OMRK 191400Z 34008KT 8000 NSC 38/23 Q0995 A2940=

Extra information for OMRK:More info

Metar Taf Metar & Taf Last 4 Metars F.Rules Stats Wind Profile Meteogram Temp Stats Airport Information Weather charts Add Link Nearby VenuesMetar ALERT Operation Metar Decoded Social comments